Time;durP1;ratioP1;P1;durP2;ratioP2;P2;SDS_P1;SDS_P2;PMS_P1;PMS_P2;Temp;Humidity;BMP_temperature;BMP_pressure;BME280_temperature;BME280_humidity;BME280_pressure;Samples;Min_cycle;Max_cycle;Signal;HPM_P1;HPM_P2
2023/02/18 00:01:36;;;;;;;16.48;2.97;;;8.20;99.90;;;;;;4938626;28;20508;-85
2023/02/18 00:04:03;;;;;;;17.80;2.90;;;7.50;99.90;;;;;;4943889;28;20031;-85
2023/02/18 00:06:33;;;;;;;23.98;4.50;;;7.50;99.90;;;;;;4928720;29;20525;-85
2023/02/18 00:09:01;;;;;;;18.10;2.63;;;7.60;99.90;;;;;;4944819;28;20043;-85
2023/02/18 00:11:31;;;;;;;23.02;2.85;;;7.60;99.90;;;;;;4943979;28;20178;-84
2023/02/18 00:14:01;;;;;;;12.88;2.63;;;7.70;99.90;;;;;;4926536;29;20047;-85
2023/02/18 00:16:28;;;;;;;18.05;3.17;;;8.60;99.90;;;;;;4926056;29;20042;-85
2023/02/18 00:19:04;;;;;;;14.10;3.45;;;7.90;99.90;;;;;;4939727;28;20046;-85
2023/02/18 00:21:38;;;;;;;17.70;3.70;;;7.70;99.90;;;;;;4943000;28;20508;-84
2023/02/18 00:24:05;;;;;;;14.60;3.10;;;7.70;99.90;;;;;;4940924;28;20128;-86
2023/02/18 00:26:35;;;;;;;18.55;3.17;;;7.70;99.90;;;;;;4925799;28;20043;-85
2023/02/18 00:29:03;;;;;;;16.10;2.67;;;7.80;99.90;;;;;;4924886;28;20067;-85
2023/02/18 00:31:34;;;;;;;18.88;3.65;;;7.80;99.90;;;;;;4925556;29;20190;-85
2023/02/18 00:34:04;;;;;;;17.67;3.35;;;7.90;99.90;;;;;;4944101;28;20152;-85
2023/02/18 00:36:30;;;;;;;17.92;2.97;;;8.10;99.90;;;;;;4940924;28;20054;-85
2023/02/18 00:39:07;;;;;;;14.88;2.83;;;8.00;99.90;;;;;;4925777;28;20040;-84
2023/02/18 00:41:39;;;;;;;13.82;2.92;;;8.40;99.90;;;;;;4939636;28;20043;-83
2023/02/18 00:44:05;;;;;;;11.93;2.78;;;7.80;99.90;;;;;;4924243;29;20050;-83
2023/02/18 00:46:34;;;;;;;24.65;3.88;;;8.00;99.90;;;;;;4926286;29;20082;-85
2023/02/18 00:49:01;;;;;;;12.52;3.03;;;7.70;99.90;;;;;;4960314;28;20138;-85
2023/02/18 00:51:35;;;;;;;15.07;3.63;;;8.40;99.90;;;;;;4947422;28;20043;-85
2023/02/18 00:54:04;;;;;;;13.93;3.15;;;7.70;99.90;;;;;;4958599;28;20047;-84
2023/02/18 00:56:32;;;;;;;16.50;4.07;;;7.70;99.90;;;;;;4942843;28;20070;-85
2023/02/18 00:58:58;;;;;;;17.40;3.17;;;7.90;99.90;;;;;;4940299;28;20039;-85
2023/02/18 01:01:27;;;;;;;17.63;4.85;;;7.80;99.90;;;;;;4944845;28;20035;-84
2023/02/18 01:03:56;;;;;;;22.05;3.80;;;8.20;99.90;;;;;;4920846;28;20079;-85
2023/02/18 01:06:22;;;;;;;17.88;3.78;;;7.80;99.90;;;;;;4921717;29;20082;-85
2023/02/18 01:08:48;;;;;;;16.00;4.47;;;7.80;99.90;;;;;;4925990;29;20071;-85
2023/02/18 01:11:32;;;;;;;20.25;4.10;;;8.90;99.90;;;;;;4947010;29;20067;-85
2023/02/18 01:14:01;;;;;;;17.10;5.05;;;7.80;99.90;;;;;;4932978;29;20418;-85
2023/02/18 01:16:35;;;;;;;26.08;6.93;;;7.40;99.90;;;;;;4932175;29;20047;-85
2023/02/18 01:19:03;;;;;;;26.33;6.07;;;7.80;99.90;;;;;;4932194;28;20602;-85
2023/02/18 01:21:38;;;;;;;21.85;5.85;;;8.40;99.90;;;;;;4946448;28;20911;-85
2023/02/18 01:24:27;;;;;;;23.73;6.45;;;8.80;99.90;;;;;;4931755;29;20394;-84
2023/02/18 01:26:58;;;;;;;20.08;6.07;;;7.80;99.90;;;;;;4948665;28;20096;-84
2023/02/18 01:29:42;;;;;;;22.42;5.95;;;7.70;99.90;;;;;;4950680;28;20039;-85
2023/02/18 01:32:16;;;;;;;23.95;6.80;;;7.80;99.90;;;;;;4946854;29;20046;-84
2023/02/18 01:34:45;;;;;;;26.95;7.65;;;7.70;99.90;;;;;;4933924;28;20043;-84
2023/02/18 01:37:26;;;;;;;24.48;7.22;;;7.80;99.90;;;;;;4938923;28;20394;-85
2023/02/18 01:40:21;;;;;;;22.55;7.47;;;8.20;99.90;;;;;;4951157;28;20414;-85
2023/02/18 01:46:31;;;;;;;22.98;7.10;;;8.30;99.90;;;;;;4950658;28;20074;-84
2023/02/18 01:49:01;;;;;;;31.17;7.75;;;7.80;99.90;;;;;;4954168;28;20478;-85
2023/02/18 01:51:53;;;;;;;20.80;7.72;;;7.80;99.90;;;;;;4949645;28;20109;-84
2023/02/18 01:54:42;;;;;;;29.95;9.25;;;7.90;99.90;;;;;;4935672;29;20454;-85
2023/02/18 01:57:23;;;;;;;25.65;8.68;;;7.90;99.90;;;;;;4948288;28;20047;-85
2023/02/18 02:00:24;;;;;;;25.85;8.95;;;8.50;99.90;;;;;;4951296;28;20050;-85
2023/02/18 02:02:57;;;;;;;24.60;8.40;;;7.90;99.90;;;;;;4948429;28;20619;-84
2023/02/18 02:05:23;;;;;;;27.80;9.95;;;8.50;99.90;;;;;;4952277;28;20394;-85
2023/02/18 02:08:02;;;;;;;28.52;9.30;;;8.70;99.90;;;;;;4963708;28;20073;-85
2023/02/18 02:10:59;;;;;;;21.90;8.80;;;7.30;99.90;;;;;;4962032;28;20110;-84
2023/02/18 02:13:28;;;;;;;23.75;9.45;;;8.00;99.90;;;;;;4948146;28;20872;-85
2023/02/18 02:16:47;;;;;;;25.35;9.00;;;8.00;99.90;;;;;;4952317;28;20079;-85
2023/02/18 02:19:43;;;;;;;20.35;7.75;;;8.20;99.90;;;;;;4926184;28;20040;-85
2023/02/18 02:22:32;;;;;;;;;;;8.10;99.90;;;;;;4932625;29;20059;-85
2023/02/18 02:25:28;;;;;;;22.58;8.05;;;8.10;99.90;;;;;;4944570;28;20369;-84
2023/02/18 02:28:18;;;;;;;15.88;7.05;;;8.20;99.90;;;;;;4931687;28;20126;-85
2023/02/18 02:31:23;;;;;;;21.90;7.75;;;8.10;99.90;;;;;;4948639;28;20776;-85
2023/02/18 02:34:23;;;;;;;18.60;6.35;;;8.20;99.90;;;;;;4950201;28;20286;-84
2023/02/18 02:36:54;;;;;;;20.75;7.95;;;8.20;99.90;;;;;;4933424;29;20046;-84
2023/02/18 02:39:38;;;;;;;17.25;7.47;;;8.10;99.90;;;;;;4964585;28;20039;-84
2023/02/18 02:42:12;;;;;;;20.40;7.68;;;8.30;99.90;;;;;;4949084;28;20469;-85
2023/02/18 02:44:47;;;;;;;21.77;7.90;;;8.30;99.90;;;;;;4948846;28;20142;-85
2023/02/18 02:47:39;;;;;;;24.75;9.40;;;8.20;99.90;;;;;;4948433;28;20038;-85
2023/02/18 02:50:33;;;;;;;19.67;6.85;;;8.10;99.90;;;;;;4951961;28;20050;-87
2023/02/18 02:53:13;;;;;;;16.48;6.40;;;8.40;99.90;;;;;;4948291;28;20047;-84
2023/02/18 02:55:38;;;;;;;14.90;5.95;;;8.30;99.90;;;;;;4949106;28;20044;-84
2023/02/18 02:58:10;;;;;;;17.52;6.32;;;8.60;99.90;;;;;;4949469;28;20047;-85
2023/02/18 03:01:05;;;;;;;15.27;5.60;;;8.30;99.90;;;;;;4951408;28;20070;-85
2023/02/18 03:04:03;;;;;;;15.07;5.20;;;8.30;99.90;;;;;;4929330;29;20869;-84
2023/02/18 03:06:50;;;;;;;14.45;4.18;;;8.30;99.90;;;;;;4948881;28;20051;-85
2023/02/18 03:09:28;;;;;;;13.65;4.45;;;8.30;99.90;;;;;;4950791;28;20035;-85
2023/02/18 03:12:13;;;;;;;13.43;4.90;;;8.20;99.90;;;;;;4929130;29;20044;-83
2023/02/18 03:15:09;;;;;;;13.98;4.63;;;8.40;99.90;;;;;;4945213;29;20475;-84
2023/02/18 03:17:53;;;;;;;18.38;4.60;;;8.40;99.90;;;;;;4948857;28;20032;-83
2023/02/18 03:20:37;;;;;;;12.57;4.50;;;9.00;99.90;;;;;;4946345;28;20070;-84
2023/02/18 03:23:13;;;;;;;17.85;4.70;;;8.50;99.90;;;;;;4950359;28;20062;-84
2023/02/18 03:25:51;;;;;;;11.30;4.93;;;8.40;99.90;;;;;;4948875;28;20548;-88
2023/02/18 03:28:20;;;;;;;17.65;4.72;;;8.40;99.90;;;;;;4946618;28;20094;-83
2023/02/18 03:30:49;;;;;;;17.58;5.85;;;8.70;99.90;;;;;;4932349;29;20460;-82
2023/02/18 03:33:25;;;;;;;23.05;7.80;;;8.50;99.90;;;;;;4964903;28;20079;-83
2023/02/18 03:35:56;;;;;;;23.85;8.18;;;8.30;99.90;;;;;;4947913;28;20043;-86
2023/02/18 03:39:00;;;;;;;23.38;9.32;;;8.80;99.90;;;;;;4965597;28;20039;-83
2023/02/18 03:41:29;;;;;;;25.63;11.77;;;8.60;99.90;;;;;;4946819;28;20043;-84
2023/02/18 03:44:05;;;;;;;26.60;13.50;;;8.80;99.90;;;;;;4948439;29;20483;-83
2023/02/18 03:46:33;;;;;;;34.65;15.15;;;8.90;99.90;;;;;;4933132;29;20465;-87
2023/02/18 03:48:59;;;;;;;32.47;16.63;;;9.30;99.90;;;;;;4948031;28;20486;-84
2023/02/18 03:51:28;;;;;;;40.63;19.35;;;9.20;99.90;;;;;;4949349;28;20049;-84
2023/02/18 03:53:56;;;;;;;44.63;22.73;;;9.30;99.90;;;;;;4929109;29;20134;-83
2023/02/18 03:56:25;;;;;;;46.83;23.92;;;8.90;99.90;;;;;;4933801;28;20035;-84
2023/02/18 03:58:56;;;;;;;47.83;23.70;;;8.90;99.90;;;;;;4929043;29;20110;-84
2023/02/18 04:01:25;;;;;;;47.95;27.92;;;8.90;99.90;;;;;;4930331;29;20046;-84
2023/02/18 04:03:53;;;;;;;45.00;27.55;;;9.10;99.90;;;;;;4937872;29;20098;-84
2023/02/18 04:06:33;;;;;;;44.95;24.15;;;9.80;99.90;;;;;;4933836;28;20043;-84
2023/02/18 04:09:18;;;;;;;42.00;24.70;;;9.20;99.90;;;;;;4932197;29;20069;-85
2023/02/18 04:11:44;;;;;;;51.20;25.67;;;9.00;99.90;;;;;;4962470;28;20125;-85
2023/02/18 04:14:16;;;;;;;49.38;27.10;;;9.00;99.90;;;;;;4928824;29;20054;-84
2023/02/18 04:16:44;;;;;;;44.08;24.95;;;9.00;99.90;;;;;;4961372;28;20390;-84
2023/02/18 04:19:24;;;;;;;46.58;27.92;;;9.30;99.90;;;;;;4947435;28;20039;-84
2023/02/18 04:21:55;;;;;;;55.42;27.50;;;9.20;99.90;;;;;;4929734;28;20750;-85
2023/02/18 04:24:24;;;;;;;49.92;26.88;;;9.00;99.90;;;;;;4930776;28;20039;-84
2023/02/18 04:26:59;;;;;;;52.83;28.48;;;9.20;99.90;;;;;;4931143;28;20036;-84
2023/02/18 04:29:30;;;;;;;52.78;29.50;;;9.00;99.90;;;;;;4931461;29;20390;-85
2023/02/18 04:32:15;;;;;;;46.17;28.20;;;9.20;99.90;;;;;;4931507;29;20047;-85
2023/02/18 04:34:52;;;;;;;50.92;29.33;;;9.10;99.90;;;;;;4944481;28;20035;-85
2023/02/18 04:37:29;;;;;;;50.50;28.85;;;9.10;99.90;;;;;;4960869;28;20054;-85
2023/02/18 04:40:03;;;;;;;53.10;28.20;;;9.70;99.90;;;;;;4932187;28;20042;-85
2023/02/18 04:42:34;;;;;;;57.50;31.80;;;9.20;99.90;;;;;;4927929;29;20067;-84
2023/02/18 04:45:00;;;;;;;56.65;30.05;;;9.10;99.90;;;;;;4931218;29;20047;-85
2023/02/18 04:47:33;;;;;;;57.45;31.77;;;9.10;99.90;;;;;;4930266;29;20118;-85
2023/02/18 04:50:16;;;;;;;58.67;33.03;;;9.20;99.90;;;;;;4930299;28;20685;-85
2023/02/18 04:53:16;;;;;;;64.25;35.33;;;9.10;99.90;;;;;;4930415;28;20047;-85
2023/02/18 04:56:02;;;;;;;72.05;35.63;;;9.80;99.90;;;;;;4946458;28;20497;-85
2023/02/18 04:58:49;;;;;;;68.95;37.08;;;9.20;99.90;;;;;;4946270;29;21781;-84
2023/02/18 05:01:45;;;;;;;72.80;36.92;;;9.20;99.90;;;;;;4933731;29;20526;-88
2023/02/18 05:04:55;;;;;;;;;;;;;;;;;;;;;
2023/02/18 05:07:53;;;;;;;;;;;9.50;99.90;;;;;;4947822;28;20126;-87
2023/02/18 05:10:42;;;;;;;83.72;37.80;;;9.20;99.90;;;;;;4962846;28;19922;-84
2023/02/18 05:14:00;;;;;;;80.10;39.63;;;9.10;99.90;;;;;;4936723;28;20252;-85
2023/02/18 05:17:59;;;;;;;;;;;;;;;;;;;;;
2023/02/18 05:21:41;;;;;;;;;;;;;;;;;;;;;
2023/02/18 06:17:40;;;;;;;28.17;12.35;;;9.50;99.90;;;;;;2739823;22;20046;-83
2023/02/18 06:20:43;;;;;;;31.20;12.43;;;9.30;99.90;;;;;;4967137;28;20043;-84
2023/02/18 06:23:17;;;;;;;19.20;10.43;;;9.50;99.90;;;;;;4960134;28;20535;-84
2023/02/18 06:26:20;;;;;;;20.17;9.73;;;9.50;99.90;;;;;;4968535;28;20043;-83
2023/02/18 06:29:01;;;;;;;16.83;8.70;;;10.00;99.90;;;;;;4968192;28;20054;-83
2023/02/18 06:31:45;;;;;;;14.18;7.85;;;9.50;99.90;;;;;;4965498;28;20166;-83
2023/02/18 06:34:17;;;;;;;12.75;8.00;;;9.70;99.90;;;;;;4948411;28;20575;-84
2023/02/18 06:39:40;;;;;;;16.27;8.07;;;10.30;99.90;;;;;;4967016;28;20043;-84
2023/02/18 06:42:14;;;;;;;14.30;8.52;;;9.60;99.90;;;;;;4976075;28;20031;-84
2023/02/18 06:44:52;;;;;;;11.48;8.32;;;9.60;99.90;;;;;;4979333;28;20079;-84
2023/02/18 06:47:23;;;;;;;15.77;9.50;;;9.70;99.90;;;;;;4964740;28;20390;-84
2023/02/18 06:50:09;;;;;;;;;;;;;;;;;;;;;
2023/02/18 06:52:36;;;;;;;;;;;10.10;99.90;;;;;;4964652;28;20138;-84
2023/02/18 06:55:09;;;;;;;16.85;11.23;;;9.70;99.90;;;;;;4950170;28;19946;-84
2023/02/18 06:57:46;;;;;;;20.08;12.73;;;9.70;99.90;;;;;;4964039;28;20043;-84
2023/02/18 07:00:14;;;;;;;20.38;14.98;;;9.80;99.90;;;;;;4949073;28;20039;-83
2023/02/18 07:03:00;;;;;;;19.83;14.77;;;9.80;99.90;;;;;;4950961;28;20038;-84
2023/02/18 07:05:47;;;;;;;22.17;15.57;;;9.80;99.90;;;;;;4963167;28;20047;-83
2023/02/18 07:12:49;;;;;;;23.10;16.50;;;9.80;99.90;;;;;;4931913;28;20055;-84
2023/02/18 07:15:15;;;;;;;21.20;16.15;;;9.80;99.90;;;;;;4948111;28;20039;-82
2023/02/18 07:22:07;;;;;;;23.42;17.70;;;9.90;99.90;;;;;;4963511;28;20049;-82
2023/02/18 07:28:19;;;;;;;30.98;17.27;;;10.10;99.90;;;;;;4875090;29;20055;-82
2023/02/18 07:31:13;;;;;;;24.30;16.40;;;10.30;99.90;;;;;;4927553;29;21753;-83
2023/02/18 07:34:15;;;;;;;18.42;14.70;;;9.90;99.90;;;;;;4928564;29;20636;-81
2023/02/18 07:36:46;;;;;;;26.08;16.42;;;9.90;99.90;;;;;;4922510;29;21501;-81
2023/02/18 07:39:15;;;;;;;21.88;15.38;;;9.80;99.90;;;;;;4943413;29;20038;-82
2023/02/18 07:41:42;;;;;;;23.00;14.57;;;9.90;99.90;;;;;;4928350;29;20038;-82
2023/02/18 07:44:10;;;;;;;22.63;15.18;;;9.90;99.90;;;;;;4932014;29;20054;-80
2023/02/18 07:46:40;;;;;;;23.38;14.85;;;9.60;99.90;;;;;;4945611;29;20054;-82
2023/02/18 07:49:57;;;;;;;24.45;13.93;;;10.10;99.90;;;;;;4956391;28;20517;-82
2023/02/18 07:53:01;;;;;;;23.42;13.27;;;9.90;99.90;;;;;;4940096;29;20070;-83
2023/02/18 07:56:25;;;;;;;21.92;12.50;;;9.90;99.90;;;;;;4942102;28;20046;-85
2023/02/18 07:59:47;;;;;;;17.60;11.55;;;9.90;99.90;;;;;;4939102;29;20047;-85
2023/02/18 08:05:41;;;;;;;25.77;11.88;;;10.10;99.90;;;;;;4942142;28;20094;-83
2023/02/18 08:08:44;;;;;;;15.77;9.73;;;10.40;99.90;;;;;;4936400;29;20043;-83
2023/02/18 08:11:13;;;;;;;18.13;9.52;;;9.90;99.90;;;;;;4951037;28;21036;-84
2023/02/18 08:13:42;;;;;;;15.57;8.90;;;9.90;99.90;;;;;;4921857;29;20055;-84
2023/02/18 08:16:13;;;;;;;14.80;7.50;;;10.00;99.90;;;;;;4924915;29;20051;-84
2023/02/18 08:18:42;;;;;;;21.05;9.00;;;10.40;99.90;;;;;;4937431;29;20054;-84
2023/02/18 08:21:08;;;;;;;19.77;8.30;;;10.60;99.90;;;;;;4946632;29;20037;-84
2023/02/18 08:26:38;;;;;;;22.25;9.45;;;10.00;99.90;;;;;;4949301;28;20047;-84
2023/02/18 08:29:04;;;;;;;21.63;10.18;;;10.00;99.90;;;;;;4941197;28;20105;-85
2023/02/18 08:31:33;;;;;;;16.50;10.93;;;9.70;99.90;;;;;;4940891;29;20047;-84
2023/02/18 08:34:08;;;;;;;25.25;10.57;;;10.00;99.90;;;;;;4927901;29;20058;-84
2023/02/18 08:36:35;;;;;;;16.90;9.15;;;10.20;99.90;;;;;;4945800;28;20035;-84
2023/02/18 08:39:07;;;;;;;20.80;10.77;;;10.00;99.90;;;;;;4945554;29;20046;-85
2023/02/18 08:41:32;;;;;;;15.68;9.18;;;10.20;99.90;;;;;;4931262;28;20047;-80
2023/02/18 08:43:58;;;;;;;13.38;7.90;;;10.00;99.90;;;;;;4931825;29;20039;-79
2023/02/18 08:46:24;;;;;;;21.63;9.07;;;10.10;99.90;;;;;;4945815;29;20058;-79
2023/02/18 08:48:49;;;;;;;19.92;9.05;;;10.00;99.90;;;;;;4929291;29;20094;-79
2023/02/18 08:51:21;;;;;;;16.50;8.25;;;10.00;99.90;;;;;;4939582;29;20462;-79
2023/02/18 08:53:47;;;;;;;16.80;7.50;;;10.40;99.90;;;;;;4942339;29;20047;-82
2023/02/18 08:56:28;;;;;;;16.13;7.47;;;11.10;99.90;;;;;;5070405;27;20392;-81
2023/02/18 08:58:56;;;;;;;15.55;6.22;;;9.90;99.90;;;;;;5016760;28;20480;-82
2023/02/18 09:01:22;;;;;;;16.77;7.03;;;10.20;99.90;;;;;;5017394;28;20041;-83
2023/02/18 09:03:49;;;;;;;16.30;6.63;;;10.00;99.90;;;;;;4978058;28;20038;-82
2023/02/18 09:06:17;;;;;;;11.90;5.78;;;10.80;99.90;;;;;;4984404;28;20058;-82
2023/02/18 09:09:30;;;;;;;;;;;;;;;;;;;;;
2023/02/18 09:12:24;;;;;;;10.20;5.07;;;10.00;99.90;;;;;;4973983;28;20057;-83
2023/02/18 09:14:50;;;;;;;10.85;4.88;;;9.90;99.90;;;;;;4952911;28;20165;-80
2023/02/18 09:17:17;;;;;;;7.72;4.50;;;10.10;99.90;;;;;;4950414;28;20126;-80
2023/02/18 09:19:43;;;;;;;8.80;4.88;;;9.90;99.90;;;;;;4957685;28;20035;-82
2023/02/18 09:22:09;;;;;;;10.80;4.43;;;10.10;99.90;;;;;;4965854;28;20122;-82
2023/02/18 09:24:42;;;;;;;8.15;4.13;;;9.80;99.90;;;;;;4977021;28;20101;-83
2023/02/18 09:27:11;;;;;;;11.45;5.00;;;9.90;99.90;;;;;;4980012;28;20053;-82
2023/02/18 09:29:38;;;;;;;11.52;5.72;;;9.70;99.90;;;;;;4974240;28;20416;-80
2023/02/18 09:32:05;;;;;;;18.63;6.15;;;9.90;99.90;;;;;;4987750;28;20058;-80
2023/02/18 09:34:31;;;;;;;14.23;6.03;;;10.50;99.90;;;;;;4960960;28;20038;-82
2023/02/18 09:36:57;;;;;;;15.55;5.47;;;10.30;99.90;;;;;;4982438;28;20121;-83
2023/02/18 09:39:22;;;;;;;14.30;5.78;;;10.00;99.90;;;;;;4960507;28;20165;-83
2023/02/18 09:42:01;;;;;;;13.15;4.65;;;10.10;99.90;;;;;;4976268;28;20043;-82
2023/02/18 09:44:35;;;;;;;12.25;4.18;;;10.20;99.90;;;;;;4959155;28;20105;-82
2023/02/18 09:47:24;;;;;;;10.73;4.10;;;9.90;99.90;;;;;;4960374;28;20497;-83
2023/02/18 09:49:57;;;;;;;17.20;5.32;;;9.80;99.90;;;;;;4972484;28;20049;-82
2023/02/18 09:52:33;;;;;;;14.13;4.85;;;10.20;99.90;;;;;;4943248;28;21013;-82
2023/02/18 09:55:01;;;;;;;14.75;4.47;;;9.80;99.90;;;;;;4993275;28;20042;-82
2023/02/18 09:57:36;;;;;;;17.38;4.35;;;9.70;99.90;;;;;;4970445;28;20047;-82
2023/02/18 10:00:26;;;;;;;17.13;3.47;;;9.70;99.90;;;;;;4992258;28;20049;-82
2023/02/18 10:03:01;;;;;;;14.02;2.95;;;9.70;99.90;;;;;;4961808;28;20047;-83
2023/02/18 10:05:33;;;;;;;13.13;2.75;;;9.70;99.90;;;;;;4961768;28;20141;-83
2023/02/18 10:08:09;;;;;;;14.00;2.67;;;10.20;99.90;;;;;;4933822;29;20039;-83
2023/02/18 10:10:46;;;;;;;12.38;3.63;;;9.70;99.90;;;;;;4949400;28;20046;-83
2023/02/18 10:13:19;;;;;;;19.70;3.00;;;10.20;99.90;;;;;;4950492;28;20042;-82
2023/02/18 10:15:46;;;;;;;16.15;2.97;;;10.60;99.90;;;;;;4946806;28;20047;-82
2023/02/18 10:18:38;;;;;;;16.75;2.80;;;9.90;99.90;;;;;;4961228;28;20047;-83
2023/02/18 10:21:12;;;;;;;13.77;3.03;;;9.80;99.90;;;;;;4965644;28;20093;-80
2023/02/18 10:23:42;;;;;;;11.55;2.28;;;10.00;99.90;;;;;;4966384;28;20035;-80
2023/02/18 10:26:15;;;;;;;13.68;2.33;;;10.00;99.90;;;;;;4964038;28;20121;-80
2023/02/18 10:28:41;;;;;;;12.88;2.88;;;10.50;99.90;;;;;;4945237;28;20063;-81
2023/02/18 10:31:09;;;;;;;13.65;2.67;;;10.10;99.90;;;;;;4944970;28;20047;-80
2023/02/18 10:33:46;;;;;;;18.73;3.80;;;10.60;99.90;;;;;;4975897;28;20043;-82
2023/02/18 10:36:25;;;;;;;13.70;2.50;;;10.20;99.90;;;;;;4959938;28;20046;-81
2023/02/18 10:39:01;;;;;;;16.17;2.33;;;10.20;99.90;;;;;;4957199;28;20043;-80
2023/02/18 10:41:36;;;;;;;14.48;3.25;;;10.30;99.90;;;;;;4950090;28;20442;-80
2023/02/18 10:44:34;;;;;;;11.30;1.75;;;10.70;99.90;;;;;;4971030;28;20047;-81
2023/02/18 10:47:16;;;;;;;13.02;2.25;;;10.30;99.90;;;;;;4945721;28;20047;-79
2023/02/18 10:50:01;;;;;;;15.90;2.53;;;10.70;99.90;;;;;;4945594;28;20358;-82
2023/02/18 10:52:33;;;;;;;14.77;2.42;;;10.40;99.90;;;;;;4962380;28;20498;-82
2023/02/18 10:55:08;;;;;;;13.68;2.28;;;10.80;99.90;;;;;;4931452;28;21250;-81
2023/02/18 10:57:34;;;;;;;13.77;2.10;;;10.50;99.90;;;;;;4961822;28;20134;-81
2023/02/18 11:00:19;;;;;;;10.35;3.40;;;10.70;99.90;;;;;;4952648;28;20583;-82
2023/02/18 11:02:46;;;;;;;13.98;2.45;;;10.90;99.90;;;;;;4969096;28;20035;-81
2023/02/18 11:05:25;;;;;;;16.05;2.25;;;10.60;99.90;;;;;;4964578;28;20885;-80
2023/02/18 11:07:53;;;;;;;15.18;2.58;;;10.70;99.90;;;;;;4977187;28;20102;-78
2023/02/18 11:10:40;;;;;;;12.38;1.77;;;10.70;99.90;;;;;;4927445;28;20075;-79
2023/02/18 11:13:09;;;;;;;15.65;2.35;;;10.80;99.90;;;;;;4946163;28;20084;-79
2023/02/18 11:15:36;;;;;;;14.25;2.75;;;10.80;99.90;;;;;;4972593;28;20039;-81
2023/02/18 11:18:22;;;;;;;12.57;2.95;;;11.10;99.90;;;;;;4947497;28;20378;-78
2023/02/18 11:20:59;;;;;;;15.10;2.30;;;10.80;99.90;;;;;;4947939;28;20053;-79
2023/02/18 11:23:25;;;;;;;12.98;2.75;;;11.20;99.90;;;;;;4944414;28;20086;-78
2023/02/18 11:26:03;;;;;;;12.82;2.00;;;10.70;99.90;;;;;;4939720;28;20879;-79
2023/02/18 11:28:50;;;;;;;11.55;2.47;;;10.80;99.90;;;;;;4945579;28;20237;-80
2023/02/18 11:31:25;;;;;;;15.25;1.88;;;10.80;99.90;;;;;;4939737;28;20438;-79
2023/02/18 11:33:58;;;;;;;12.27;2.57;;;11.10;99.90;;;;;;4951989;28;20083;-82
2023/02/18 11:36:28;;;;;;;16.98;3.05;;;11.40;99.90;;;;;;4951010;28;20043;-79
2023/02/18 11:38:55;;;;;;;11.65;2.45;;;11.20;99.90;;;;;;4943364;28;20090;-79
2023/02/18 11:41:35;;;;;;;15.90;3.22;;;11.30;99.90;;;;;;4959774;28;20047;-79
2023/02/18 11:44:03;;;;;;;9.75;1.85;;;11.00;99.90;;;;;;4977690;28;20047;-80
2023/02/18 11:46:29;;;;;;;13.05;2.28;;;11.40;99.90;;;;;;4944490;28;20051;-80
2023/02/18 11:48:55;;;;;;;14.25;2.70;;;11.50;99.90;;;;;;4951401;28;20052;-80
2023/02/18 11:51:27;;;;;;;11.35;2.42;;;11.10;99.90;;;;;;4955687;28;20137;-79
2023/02/18 11:54:00;;;;;;;14.43;2.70;;;11.20;99.90;;;;;;4934357;28;20058;-81
2023/02/18 11:56:29;;;;;;;13.77;2.90;;;11.30;99.90;;;;;;4962485;28;20039;-80
2023/02/18 11:58:56;;;;;;;5.88;1.67;;;11.20;99.90;;;;;;4952271;28;20079;-80
2023/02/18 12:01:34;;;;;;;9.10;2.35;;;11.50;99.90;;;;;;4961452;28;20045;-79
2023/02/18 12:04:16;;;;;;;8.95;1.98;;;11.30;99.90;;;;;;4963716;28;20063;-79
2023/02/18 12:07:11;;;;;;;10.85;2.83;;;11.30;99.90;;;;;;4982949;28;20249;-79
2023/02/18 12:09:41;;;;;;;14.07;2.80;;;11.20;99.90;;;;;;4964397;28;20066;-79
2023/02/18 12:12:14;;;;;;;9.45;1.60;;;11.20;99.90;;;;;;4963589;28;20887;-79
2023/02/18 12:14:40;;;;;;;9.77;2.22;;;11.60;99.90;;;;;;4950527;28;20055;-80
2023/02/18 12:17:33;;;;;;;10.73;1.92;;;11.40;99.90;;;;;;4967508;28;20039;-81
2023/02/18 12:20:50;;;;;;;9.40;2.00;;;11.30;99.90;;;;;;4953763;28;20051;-82
2023/02/18 12:23:45;;;;;;;9.98;2.17;;;11.30;99.90;;;;;;4914390;28;20050;-81
2023/02/18 12:26:20;;;;;;;7.60;1.45;;;12.20;99.90;;;;;;4949851;28;20039;-78
2023/02/18 12:28:59;;;;;;;9.23;1.77;;;12.00;99.90;;;;;;4948886;28;20068;-81
2023/02/18 12:31:30;;;;;;;11.57;2.25;;;11.30;99.90;;;;;;4931525;28;20651;-80
2023/02/18 12:34:12;;;;;;;10.82;2.53;;;12.20;99.90;;;;;;4978497;28;20039;-80
2023/02/18 12:36:47;;;;;;;7.28;1.92;;;12.10;99.90;;;;;;4950400;28;20170;-79
2023/02/18 12:39:18;;;;;;;11.73;2.65;;;11.30;99.90;;;;;;4950374;28;20047;-79
2023/02/18 12:42:00;;;;;;;11.68;1.85;;;11.30;99.90;;;;;;4934018;28;20538;-79
2023/02/18 12:44:46;;;;;;;10.68;1.55;;;11.30;99.90;;;;;;4949242;28;20220;-81
2023/02/18 12:47:38;;;;;;;8.65;1.70;;;11.60;99.90;;;;;;4949876;28;20051;-79
2023/02/18 12:50:31;;;;;;;9.88;1.73;;;11.50;99.90;;;;;;4934055;28;20039;-81
2023/02/18 12:53:17;;;;;;;11.85;2.13;;;11.50;99.90;;;;;;4950508;28;20422;-81
2023/02/18 12:55:55;;;;;;;9.10;1.83;;;11.60;99.90;;;;;;4945957;28;20065;-78
2023/02/18 12:58:27;;;;;;;13.02;2.92;;;11.60;99.90;;;;;;4979079;28;20085;-80
2023/02/18 13:01:16;;;;;;;14.18;2.58;;;11.70;99.90;;;;;;4951831;28;20086;-79
2023/02/18 13:04:00;;;;;;;10.40;2.10;;;11.80;99.90;;;;;;4936503;28;20046;-79
2023/02/18 13:07:23;;;;;;;8.75;1.90;;;11.80;99.90;;;;;;4947598;28;20469;-79
2023/02/18 13:10:07;;;;;;;8.43;1.67;;;11.80;99.90;;;;;;4899210;29;20051;-79
2023/02/18 13:13:00;;;;;;;14.23;2.05;;;11.80;99.90;;;;;;4914893;29;20062;-80
2023/02/18 13:15:40;;;;;;;12.38;1.90;;;11.80;99.90;;;;;;4931973;29;20138;-79
2023/02/18 13:18:57;;;;;;;10.50;1.45;;;12.10;99.90;;;;;;4953200;28;20050;-83
2023/02/18 13:21:24;;;;;;;14.55;2.35;;;12.00;99.90;;;;;;4942098;29;20055;-81
2023/02/18 13:23:57;;;;;;;8.55;1.50;;;12.10;99.90;;;;;;4934650;28;20045;-82
2023/02/18 13:26:24;;;;;;;12.45;2.40;;;12.10;99.90;;;;;;4935617;28;20492;-81
2023/02/18 13:29:15;;;;;;;8.45;1.70;;;12.20;99.90;;;;;;4970305;28;20192;-81
2023/02/18 13:31:50;;;;;;;10.13;1.73;;;12.10;99.90;;;;;;4950013;28;20051;-81
2023/02/18 13:34:43;;;;;;;13.20;3.13;;;12.10;99.90;;;;;;4967911;28;20051;-81
2023/02/18 13:37:56;;;;;;;11.85;2.55;;;12.10;99.90;;;;;;4984627;28;20039;-81
2023/02/18 13:40:28;;;;;;;10.60;1.90;;;12.00;99.90;;;;;;4889049;28;20422;-81
2023/02/18 13:43:17;;;;;;;9.93;2.38;;;12.20;99.90;;;;;;4954766;28;20047;-81
2023/02/18 13:45:47;;;;;;;10.30;1.67;;;11.90;99.90;;;;;;4971706;28;20512;-82
2023/02/18 13:48:25;;;;;;;10.98;2.60;;;11.80;99.90;;;;;;4957870;28;20054;-83
2023/02/18 13:50:53;;;;;;;11.38;1.90;;;11.70;99.90;;;;;;4955064;28;20055;-80
2023/02/18 13:53:22;;;;;;;9.95;1.85;;;11.80;99.90;;;;;;4954141;28;20679;-80
2023/02/18 13:55:59;;;;;;;10.95;2.25;;;12.70;99.90;;;;;;4939321;28;20051;-83
2023/02/18 13:58:47;;;;;;;8.98;1.88;;;11.80;99.90;;;;;;4955578;28;20047;-82
2023/02/18 14:01:20;;;;;;;11.25;2.20;;;11.70;99.90;;;;;;4933894;29;20211;-80
2023/02/18 14:03:45;;;;;;;16.83;3.13;;;12.00;99.90;;;;;;4930578;28;20043;-81
2023/02/18 14:06:32;;;;;;;11.43;2.90;;;11.70;99.90;;;;;;4939725;28;20043;-81
2023/02/18 14:09:13;;;;;;;9.52;1.63;;;11.80;99.90;;;;;;4947036;28;20097;-81
2023/02/18 14:11:47;;;;;;;8.82;1.63;;;11.80;99.90;;;;;;4982610;28;20053;-81
2023/02/18 14:14:25;;;;;;;12.32;3.50;;;11.80;99.90;;;;;;4932145;28;20071;-81
2023/02/18 14:17:18;;;;;;;11.80;1.77;;;11.80;99.90;;;;;;4969840;28;20510;-81
2023/02/18 14:19:59;;;;;;;10.32;2.35;;;11.90;99.90;;;;;;4962683;28;20035;-80
2023/02/18 14:22:31;;;;;;;10.63;2.33;;;11.90;99.90;;;;;;4949372;28;20043;-79
2023/02/18 14:31:22;;;;;;;15.02;2.55;;;11.80;99.90;;;;;;4954476;23;20059;-81
2023/02/18 14:34:20;;;;;;;12.07;2.50;;;11.70;99.90;;;;;;4928765;28;20047;-82
2023/02/18 14:36:52;;;;;;;11.80;2.38;;;11.70;99.90;;;;;;4912905;28;20141;-78
2023/02/18 14:40:12;;;;;;;12.93;2.70;;;11.70;99.90;;;;;;4926141;28;20100;-80
2023/02/18 14:43:09;;;;;;;12.27;1.52;;;11.60;99.90;;;;;;4849298;29;20151;-80
2023/02/18 14:45:59;;;;;;;13.50;2.38;;;11.60;99.90;;;;;;4909705;28;20043;-81
2023/02/18 14:48:56;;;;;;;10.95;2.63;;;11.70;99.90;;;;;;4908758;29;20040;-81
2023/02/18 14:51:24;;;;;;;10.80;2.65;;;11.60;99.90;;;;;;4921247;29;20062;-80
2023/02/18 14:53:50;;;;;;;10.07;1.83;;;12.00;99.90;;;;;;4937114;28;20055;-80
2023/02/18 14:56:18;;;;;;;9.38;1.77;;;12.00;99.90;;;;;;4923611;28;20054;-79
2023/02/18 14:59:12;;;;;;;11.85;2.55;;;11.60;99.90;;;;;;4902809;29;20090;-80
2023/02/18 15:01:39;;;;;;;10.45;2.47;;;11.60;99.90;;;;;;4917700;29;20051;-79
2023/02/18 15:04:04;;;;;;;11.82;2.53;;;11.50;99.90;;;;;;4904676;28;20095;-80
2023/02/18 15:06:32;;;;;;;10.18;2.20;;;11.50;99.90;;;;;;4915806;29;20179;-78
2023/02/18 15:09:19;;;;;;;13.52;2.45;;;11.50;99.90;;;;;;4905209;28;20044;-79
2023/02/18 15:11:50;;;;;;;10.52;3.75;;;11.40;99.90;;;;;;4935170;28;20036;-80